Time;durP1;ratioP1;P1;durP2;ratioP2;P2;SDS_P1;SDS_P2;PMS_P1;PMS_P2;Temp;Humidity;BMP_temperature;BMP_pressure;BME280_temperature;BME280_humidity;BME280_pressure;Samples;Min_cycle;Max_cycle;Signal;HPM_P1;HPM_P2
2024/04/23 00:02:13;;;;;;;5.70;3.40;;;;;;;14.19;59.51;101278.80;106625;1257;72545;-82
2024/04/23 06:20:11;;;;;;;6.60;3.10;;;;;;;22.84;46.23;101405.61;106137;1256;61365;-84
2024/04/23 06:22:39;;;;;;;5.90;3.20;;;;;;;22.61;47.56;101403.91;105965;1256;73263;-84
2024/04/23 06:25:07;;;;;;;5.80;3.10;;;;;;;23.03;46.41;101400.19;106072;1262;69908;-84
2024/04/23 06:27:39;;;;;;;3.00;2.70;;;;;;;23.69;45.11;101398.36;105924;1256;73639;-84
2024/04/23 06:30:10;;;;;;;3.00;2.70;;;;;;;24.43;43.38;101390.95;106145;1260;61348;-84
2024/04/23 06:32:38;;;;;;;5.20;3.00;;;;;;;24.72;43.26;101391.85;106050;1263;61526;-84
2024/04/23 06:35:07;;;;;;;4.00;3.00;;;;;;;24.65;41.51;101391.78;106076;1256;75096;-85
2024/04/23 06:37:34;;;;;;;3.30;2.80;;;;;;;24.80;42.04;101381.54;105901;1261;69578;-84
2024/04/23 06:40:08;;;;;;;3.60;3.20;;;;;;;24.68;41.86;101380.54;105764;1257;74953;-84
2024/04/23 06:42:37;;;;;;;5.40;3.10;;;;;;;25.10;42.06;101380.42;106063;1257;63980;-84
2024/04/23 06:45:05;;;;;;;2.70;2.20;;;;;;;25.72;41.49;101381.44;106129;1255;62197;-84
2024/04/23 06:47:33;;;;;;;3.90;2.10;;;;;;;24.97;42.05;101383.41;106104;1257;76871;-84
2024/04/23 06:50:00;;;;;;;5.60;2.40;;;;;;;24.37;44.17;101384.29;106174;1260;70979;-84
2024/04/23 06:52:28;;;;;;;3.20;2.30;;;;;;;24.39;44.68;101385.77;106149;1256;73398;-84
2024/04/23 06:54:57;;;;;;;2.80;1.80;;;;;;;24.69;44.23;101383.99;106145;1256;61333;-84
2024/04/23 06:57:26;;;;;;;3.30;1.70;;;;;;;25.11;42.41;101381.80;106067;1255;61279;-84
2024/04/23 06:59:53;;;;;;;1.50;1.30;;;;;;;25.31;40.54;101383.09;106384;1256;67908;-84
2024/04/23 07:02:21;;;;;;;6.40;1.50;;;;;;;25.57;39.35;101383.48;106095;1262;69821;-84
2024/04/23 07:04:49;;;;;;;2.20;1.70;;;;;;;25.72;37.89;101384.58;105908;1262;74930;-83
2024/04/23 07:07:16;;;;;;;4.20;1.90;;;;;;;25.77;37.57;101388.00;105788;1260;61385;-83
2024/04/23 07:09:44;;;;;;;4.50;2.50;;;;;;;26.01;37.62;101389.29;105874;1257;61665;-83
2024/04/23 07:12:11;;;;;;;3.50;2.50;;;;;;;26.26;37.92;101391.14;105985;1262;75988;-83
2024/04/23 07:14:39;;;;;;;4.70;2.70;;;;;;;26.24;38.02;101391.59;105873;1262;69826;-84
2024/04/23 07:17:07;;;;;;;4.10;2.50;;;;;;;26.17;38.55;101393.41;105987;1262;75402;-84
2024/04/23 07:19:34;;;;;;;4.20;2.70;;;;;;;26.25;38.74;101393.60;106182;1259;61369;-83
2024/04/23 07:22:02;;;;;;;8.30;2.40;;;;;;;26.35;37.60;101391.20;106208;1256;61344;-82
2024/04/23 07:24:30;;;;;;;2.50;2.30;;;;;;;26.29;36.95;101389.14;106292;1260;76117;-85
2024/04/23 07:26:57;;;;;;;5.80;3.70;;;;;;;26.23;35.73;101386.76;106035;1257;70162;-85
2024/04/23 07:29:27;;;;;;;3.10;2.70;;;;;;;25.98;36.96;101387.84;106214;1255;65994;-80
2024/04/23 07:31:57;;;;;;;3.40;2.50;;;;;;;25.95;37.88;101387.77;106071;1256;61248;-79
2024/04/23 07:34:26;;;;;;;5.20;2.90;;;;;;;25.81;38.01;101383.80;106539;1256;61100;-80
2024/04/23 07:36:53;;;;;;;3.20;2.80;;;;;;;25.61;39.50;101381.58;105904;1262;76857;-80
2024/04/23 07:39:21;;;;;;;3.60;2.70;;;;;;;24.95;41.24;101382.77;106270;1257;70014;-80
2024/04/23 07:41:48;;;;;;;4.20;2.30;;;;;;;24.85;41.14;101382.48;106318;1256;74968;-80
2024/04/23 07:44:16;;;;;;;3.30;2.10;;;;;;;24.98;40.83;101379.17;106289;1256;61474;-83
2024/04/23 07:46:43;;;;;;;4.80;3.70;;;;;;;25.07;40.98;101383.91;106142;1259;61639;-83
2024/04/23 07:49:11;;;;;;;3.40;2.80;;;;;;;25.11;39.23;101386.19;106183;1259;76923;-83
2024/04/23 07:51:39;;;;;;;6.30;3.10;;;;;;;25.68;38.98;101384.16;106066;1254;70660;-84
2024/04/23 07:54:06;;;;;;;5.70;3.60;;;;;;;25.63;40.04;101382.98;106000;1257;64965;-80
2024/04/23 07:56:34;;;;;;;3.20;1.80;;;;;;;25.90;37.96;101385.29;105941;1262;61334;-81
2024/04/23 07:59:01;;;;;;;3.40;2.10;;;;;;;26.04;34.36;101380.87;106125;1257;62255;-80
2024/04/23 08:01:29;;;;;;;2.30;2.10;;;;;;;25.81;35.49;101378.84;105920;1254;74585;-80
2024/04/23 08:03:56;;;;;;;5.50;2.40;;;;;;;25.39;35.70;101379.95;106109;1257;71086;-83
2024/04/23 08:06:24;;;;;;;7.10;2.40;;;;;;;25.60;36.50;101374.92;105965;1259;74816;-80
2024/04/23 08:08:53;;;;;;;3.00;1.70;;;;;;;25.73;35.76;101377.11;106127;1261;61381;-83
2024/04/23 08:11:20;;;;;;;2.20;2.00;;;;;;;25.17;36.03;101374.05;106273;1255;61136;-80
2024/04/23 08:13:48;;;;;;;3.30;2.10;;;;;;;25.20;36.47;101372.95;106254;1254;76624;-84
2024/04/23 08:16:16;;;;;;;2.70;2.30;;;;;;;25.88;35.14;101371.88;106192;1259;71021;-81
2024/04/23 08:18:43;;;;;;;6.20;3.00;;;;;;;26.15;35.21;101371.52;106084;1256;74552;-80
2024/04/23 08:21:12;;;;;;;3.60;1.90;;;;;;;25.51;36.91;101374.19;106236;1260;61290;-81
2024/04/23 08:23:40;;;;;;;2.20;1.60;;;;;;;25.55;36.46;101374.47;106082;1262;61359;-80
2024/04/23 08:26:14;;;;;;;2.40;1.90;;;;;;;25.97;33.69;101373.25;106049;1255;68016;-80
2024/04/23 08:28:44;;;;;;;3.20;1.90;;;;;;;25.49;33.51;101371.98;106373;1257;62406;-80
2024/04/23 08:31:12;;;;;;;2.80;2.00;;;;;;;25.16;34.65;101372.29;106463;1257;72539;-80
2024/04/23 08:33:40;;;;;;;4.30;2.00;;;;;;;25.39;33.89;101372.08;106237;1254;61490;-80
2024/04/23 08:36:07;;;;;;;2.80;2.30;;;;;;;25.15;34.83;101377.48;106122;1260;61180;-82
2024/04/23 08:38:35;;;;;;;2.80;2.10;;;;;;;24.60;34.94;101373.83;106127;1260;76840;-84
2024/04/23 08:41:06;;;;;;;4.30;2.70;;;;;;;24.54;34.48;101367.39;106187;1257;71033;-81
2024/04/23 08:43:36;;;;;;;4.80;2.90;;;;;;;24.44;35.47;101368.69;106011;1262;74886;-84
2024/04/23 08:46:04;;;;;;;4.10;2.90;;;;;;;24.78;37.35;101364.15;106060;1262;61346;-81
2024/04/23 08:48:32;;;;;;;6.40;2.80;;;;;;;25.04;37.70;101361.48;106121;1257;61333;-82
2024/04/23 08:51:01;;;;;;;4.10;2.90;;;;;;;25.55;37.72;101359.20;106206;1254;77268;-84
2024/04/23 08:53:28;;;;;;;3.50;2.80;;;;;;;26.00;37.70;101363.48;106311;1256;68609;-84
2024/04/23 08:55:57;;;;;;;4.30;3.10;;;;;;;25.75;36.92;101360.91;106178;1260;74915;-81
2024/04/23 08:58:25;;;;;;;4.70;3.10;;;;;;;26.41;37.21;101357.40;106731;1259;61249;-84
2024/04/23 09:00:53;;;;;;;5.30;3.40;;;;;;;26.74;35.89;101356.14;108150;1259;60955;-82
2024/04/23 09:03:20;;;;;;;5.00;2.90;;;;;;;25.90;36.85;101361.54;106246;1254;77098;-81
2024/04/23 09:05:48;;;;;;;5.20;3.00;;;;;;;25.57;37.90;101357.01;106426;1257;62479;-85
2024/04/23 09:08:16;;;;;;;7.90;3.10;;;;;;;26.01;37.86;101351.30;106560;1260;74921;-83
2024/04/23 09:10:43;;;;;;;5.70;2.70;;;;;;;26.50;37.21;101351.90;106299;1255;61314;-85
2024/04/23 09:13:11;;;;;;;4.30;2.90;;;;;;;27.48;35.13;101351.60;106315;1260;61144;-85
2024/04/23 09:15:39;;;;;;;5.70;3.20;;;;;;;27.81;33.31;101347.23;106288;1255;75696;-85
2024/04/23 09:18:07;;;;;;;4.40;2.60;;;;;;;28.16;32.97;101344.58;106122;1260;61354;-84
2024/04/23 09:20:35;;;;;;;5.10;2.70;;;;;;;28.58;32.04;101346.40;106233;1257;65917;-83
2024/04/23 09:23:02;;;;;;;5.80;3.00;;;;;;;28.37;31.86;101346.17;106110;1259;61806;-84
2024/04/23 09:25:36;;;;;;;4.20;2.80;;;;;;;28.44;31.62;101339.05;106191;1255;62438;-82
2024/04/23 09:28:09;;;;;;;3.00;2.70;;;;;;;28.25;32.08;101343.27;106150;1255;64898;-81
2024/04/23 09:30:37;;;;;;;3.30;2.90;;;;;;;27.91;31.22;101346.52;106290;1259;69872;-82
2024/04/23 09:33:05;;;;;;;3.70;3.00;;;;;;;27.40;31.21;101343.42;106208;1261;64887;-81
2024/04/23 09:35:33;;;;;;;3.70;3.10;;;;;;;26.90;32.50;101351.02;106282;1257;61266;-80
2024/04/23 09:38:04;;;;;;;4.00;3.10;;;;;;;26.30;33.03;101353.23;106314;1255;61359;-79
2024/04/23 09:40:39;;;;;;;4.40;3.00;;;;;;;27.23;34.09;101343.48;106257;1255;75684;-79
2024/04/23 09:43:06;;;;;;;6.80;3.80;;;;;;;28.08;33.96;101339.36;106135;1257;68499;-81
2024/04/23 09:45:34;;;;;;;7.00;4.00;;;;;;;28.99;33.01;101338.80;106052;1257;64282;-81
2024/04/23 09:48:01;;;;;;;7.30;4.50;;;;;;;29.26;30.81;101339.36;106083;1257;61302;-81
2024/04/23 09:50:29;;;;;;;4.30;3.20;;;;;;;30.33;30.69;101340.89;106311;1256;61246;-81
2024/04/23 09:53:03;;;;;;;4.60;3.90;;;;;;;29.37;30.39;101348.95;106196;1259;76885;-82
2024/04/23 09:55:31;;;;;;;5.00;4.00;;;;;;;28.30;31.44;101347.91;106251;1257;71877;-81
2024/04/23 09:57:59;;;;;;;7.70;4.40;;;;;;;27.86;31.23;101347.38;106036;1259;64132;-82
2024/04/23 10:00:29;;;;;;;6.20;3.80;;;;;;;27.64;33.21;101352.70;106070;1256;62300;-82
2024/04/23 10:03:01;;;;;;;6.40;3.80;;;;;;;27.96;31.88;101351.55;106072;1259;61299;-82
2024/04/23 10:05:29;;;;;;;5.70;3.80;;;;;;;27.86;32.42;101352.66;106069;1262;68009;-82
2024/04/23 10:08:11;;;;;;;7.20;4.50;;;;;;;27.50;33.47;101354.94;106232;1262;62138;-82
2024/04/23 10:10:47;;;;;;;3.80;3.40;;;;;;;28.24;32.15;101361.23;106182;1262;75028;-81
2024/04/23 10:13:21;;;;;;;7.70;4.00;;;;;;;27.21;33.14;101372.16;106290;1257;61335;-82
2024/04/23 10:15:55;;;;;;;7.10;4.90;;;;;;;26.14;34.78;101380.70;106272;1254;62290;-82
2024/04/23 10:18:28;;;;;;;8.40;5.30;;;;;;;26.54;34.66;101382.11;106237;1257;67173;-85
2024/04/23 10:20:55;;;;;;;8.60;5.50;;;;;;;26.62;34.42;101380.79;106012;1257;61276;-82
2024/04/23 10:23:23;;;;;;;7.60;5.70;;;;;;;26.41;34.36;101381.17;106013;1257;62612;-85
2024/04/23 10:25:51;;;;;;;6.90;5.10;;;;;;;26.32;34.45;101388.49;105963;1260;62394;-83
2024/04/23 10:28:18;;;;;;;6.90;5.30;;;;;;;26.24;34.21;101390.23;106140;1255;61167;-84
2024/04/23 10:30:46;;;;;;;7.20;5.60;;;;;;;26.48;33.93;101384.79;106140;1255;65019;-82
2024/04/23 10:33:14;;;;;;;7.60;5.70;;;;;;;26.46;34.03;101386.42;106068;1260;71038;-82
2024/04/23 10:35:41;;;;;;;7.40;5.40;;;;;;;26.69;34.30;101384.15;106136;1259;64364;-82
2024/04/23 10:38:10;;;;;;;9.20;5.50;;;;;;;27.46;33.30;101386.11;106157;1260;61305;-82
2024/04/23 10:40:38;;;;;;;7.70;5.50;;;;;;;27.86;32.72;101383.76;106080;1263;62590;-84
2024/04/23 10:43:18;;;;;;;6.70;4.90;;;;;;;27.53;31.73;101385.07;105932;1262;76991;-85
2024/04/23 10:45:46;;;;;;;5.50;4.30;;;;;;;27.84;31.94;101375.35;106070;1257;70015;-84
2024/04/23 10:48:13;;;;;;;11.30;5.60;;;;;;;28.56;31.19;101366.36;106106;1257;67300;-81
2024/04/23 10:50:41;;;;;;;7.30;5.20;;;;;;;28.95;30.17;101362.15;106173;1256;61244;-81
2024/04/23 10:53:08;;;;;;;8.70;5.30;;;;;;;29.51;29.31;101359.32;106239;1254;62513;-83
2024/04/23 10:55:36;;;;;;;6.90;5.50;;;;;;;29.45;29.35;101358.92;106251;1254;74532;-85
2024/04/23 10:58:03;;;;;;;9.00;5.60;;;;;;;29.20;28.98;101362.52;106339;1257;61123;-85
2024/04/23 11:00:31;;;;;;;8.80;5.50;;;;;;;29.14;29.34;101363.90;106324;1257;73675;-85
2024/04/23 11:02:58;;;;;;;7.90;5.00;;;;;;;29.01;29.34;101362.77;106113;1255;62313;-85
2024/04/23 11:05:31;;;;;;;11.20;4.90;;;;;;;28.87;30.10;101360.61;106496;1254;61453;-83
2024/04/23 11:08:06;;;;;;;;;;;;;;;27.24;32.38;101369.52;106047;1254;76900;-82
2024/04/23 11:10:48;;;;;;;7.00;5.50;;;;;;;24.69;35.50;101375.20;106274;1257;71026;-82
2024/04/23 11:13:38;;;;;;;7.60;5.50;;;;;;;24.15;35.76;101367.15;106336;1257;74449;-85
2024/04/23 11:16:18;;;;;;;9.00;5.50;;;;;;;24.13;36.85;101367.28;106103;1260;62368;-84
2024/04/23 11:18:52;;;;;;;7.40;5.70;;;;;;;22.33;40.73;101373.30;106092;1259;61259;-82
2024/04/23 11:21:25;;;;;;;8.30;6.10;;;;;;;25.17;36.54;101362.71;105918;1256;64610;-83
2024/04/23 11:23:52;;;;;;;8.30;5.90;;;;;;;25.77;35.72;101356.88;106133;1259;61248;-84
2024/04/23 11:26:21;;;;;;;6.80;5.10;;;;;;;27.12;34.00;101349.33;106028;1259;75410;-84
2024/04/23 11:28:49;;;;;;;6.00;5.20;;;;;;;27.39;32.48;101345.92;106021;1258;61816;-85
2024/04/23 11:31:18;;;;;;;8.50;6.00;;;;;;;27.23;32.72;101346.55;105914;1262;61602;-85
2024/04/23 11:33:48;;;;;;;6.50;5.20;;;;;;;27.86;32.26;101343.28;105943;1261;74697;-85
2024/04/23 11:36:26;;;;;;;7.50;5.10;;;;;;;27.33;32.47;101341.77;106125;1256;61304;-82
2024/04/23 11:39:00;;;;;;;6.50;4.70;;;;;;;26.00;34.29;101343.41;106145;1257;65393;-82
2024/04/23 11:41:28;;;;;;;8.30;5.40;;;;;;;24.63;36.98;101347.00;106192;1256;61357;-85
2024/04/23 11:43:56;;;;;;;6.20;5.10;;;;;;;24.55;37.15;101350.61;106149;1255;61253;-82
2024/04/23 11:46:23;;;;;;;6.30;4.60;;;;;;;24.73;37.56;101352.54;106040;1254;75125;-84
2024/04/23 11:48:51;;;;;;;10.00;6.50;;;;;;;25.41;37.64;101353.50;106031;1261;69181;-82
2024/04/23 11:51:18;;;;;;;8.80;4.90;;;;;;;26.05;35.58;101343.26;106262;1261;72477;-82
2024/04/23 11:53:46;;;;;;;6.10;4.10;;;;;;;27.55;34.00;101331.23;106156;1260;61398;-84
2024/04/23 11:56:14;;;;;;;6.30;4.50;;;;;;;26.43;35.71;101335.52;105970;1257;62198;-83
2024/04/23 11:58:41;;;;;;;5.90;4.50;;;;;;;27.51;33.71;101323.66;106132;1258;75707;-85
2024/04/23 12:01:09;;;;;;;6.70;4.50;;;;;;;27.39;33.88;101316.02;106050;1257;71009;-84
2024/04/23 12:03:37;;;;;;;6.50;5.30;;;;;;;27.16;34.58;101314.04;106362;1260;64737;-84
2024/04/23 12:06:05;;;;;;;8.50;5.00;;;;;;;28.70;32.37;101310.95;106032;1255;61464;-82
2024/04/23 12:08:34;;;;;;;7.50;5.20;;;;;;;29.33;31.04;101310.02;106105;1257;61234;-82
2024/04/23 12:11:02;;;;;;;6.40;4.20;;;;;;;28.69;31.09;101314.17;106085;1263;77279;-85
2024/04/23 12:13:30;;;;;;;6.00;4.00;;;;;;;28.18;31.79;101313.38;106044;1255;61624;-82
2024/04/23 12:16:01;;;;;;;5.50;4.10;;;;;;;28.84;31.18;101303.61;106387;1259;64121;-82
2024/04/23 12:18:29;;;;;;;4.60;3.70;;;;;;;29.45;30.23;101298.35;106057;1260;61410;-82
2024/04/23 12:20:57;;;;;;;7.30;4.10;;;;;;;30.76;28.33;101292.86;105980;1255;61234;-85
2024/04/23 12:23:25;;;;;;;6.60;4.80;;;;;;;30.12;28.89;101296.25;105978;1257;76689;-81
2024/04/23 12:25:52;;;;;;;4.90;4.20;;;;;;;29.20;30.07;101296.04;106206;1260;61354;-84
2024/04/23 12:28:20;;;;;;;5.50;3.40;;;;;;;29.08;30.09;101292.21;106259;1265;64958;-80
2024/04/23 12:30:48;;;;;;;5.10;4.00;;;;;;;28.35;30.24;101288.75;106113;1261;61246;-81
2024/04/23 12:33:16;;;;;;;5.20;3.80;;;;;;;26.14;33.08;101292.73;106251;1256;61471;-84
2024/04/23 12:35:44;;;;;;;6.80;4.80;;;;;;;27.82;32.17;101285.52;106027;1255;64921;-84
2024/04/23 12:38:12;;;;;;;4.80;4.10;;;;;;;29.00;30.71;101285.73;106251;1262;62216;-80
2024/04/23 12:40:41;;;;;;;6.70;3.80;;;;;;;27.94;31.92;101284.34;106097;1259;73646;-81
2024/04/23 12:43:12;;;;;;;5.60;3.40;;;;;;;29.35;30.37;101280.42;106150;1258;61381;-80
2024/04/23 12:45:40;;;;;;;5.60;2.90;;;;;;;29.90;29.46;101281.05;106165;1259;61291;-84
2024/04/23 12:48:08;;;;;;;4.60;2.10;;;;;;;29.33;29.80;101278.92;106192;1260;67655;-84
2024/04/23 12:50:35;;;;;;;2.30;1.80;;;;;;;27.29;32.48;101275.41;106319;1259;61314;-80
2024/04/23 12:53:03;;;;;;;2.20;2.00;;;;;;;26.63;33.56;101276.23;106200;1260;64682;-82
2024/04/23 12:55:31;;;;;;;5.50;3.10;;;;;;;28.31;30.77;101280.73;106255;1262;61452;-80
2024/04/23 12:57:59;;;;;;;4.50;2.80;;;;;;;27.52;31.31;101281.57;105899;1260;61836;-79
2024/04/23 13:00:27;;;;;;;4.40;2.70;;;;;;;27.45;31.36;101272.83;106141;1256;68558;-79
2024/04/23 13:02:55;;;;;;;3.60;2.70;;;;;;;27.36;31.65;101269.83;106101;1260;61203;-79
2024/04/23 13:05:23;;;;;;;4.00;1.70;;;;;;;27.17;32.00;101267.16;106192;1260;65829;-79
2024/04/23 13:07:50;;;;;;;6.50;5.90;;;;;;;27.89;31.24;101262.89;106073;1257;61439;-79
2024/04/23 13:10:18;;;;;;;1.90;1.50;;;;;;;29.81;28.72;101257.83;106332;1260;61365;-80
2024/04/23 13:12:46;;;;;;;3.20;1.80;;;;;;;29.92;28.33;101257.41;106298;1260;66266;-82
2024/04/23 13:15:14;;;;;;;2.20;1.60;;;;;;;29.28;28.62;101260.94;106153;1254;67219;-85
2024/04/23 13:17:42;;;;;;;1.70;1.60;;;;;;;28.39;30.24;101256.43;106154;1261;74973;-81
2024/04/23 13:20:10;;;;;;;1.90;1.70;;;;;;;27.36;30.44;101262.14;106000;1263;61433;-85
2024/04/23 13:22:37;;;;;;;3.10;1.50;;;;;;;27.85;30.37;101259.95;106137;1260;61385;-79
2024/04/23 13:25:09;;;;;;;3.70;1.60;;;;;;;27.48;30.25;101256.41;106119;1260;76824;-84
2024/04/23 13:27:36;;;;;;;2.50;1.70;;;;;;;26.32;31.28;101261.21;106136;1260;69743;-85
2024/04/23 13:30:04;;;;;;;1.50;1.40;;;;;;;26.25;31.45;101256.36;106158;1260;66095;-84
2024/04/23 13:32:35;;;;;;;1.80;1.50;;;;;;;26.49;31.42;101254.88;106025;1265;61561;-84
2024/04/23 13:35:04;;;;;;;2.90;2.60;;;;;;;26.84;32.04;101256.13;105984;1257;61414;-84
2024/04/23 13:37:32;;;;;;;2.90;1.40;;;;;;;27.44;31.76;101253.84;106093;1260;76923;-81
2024/04/23 13:40:03;;;;;;;5.50;4.00;;;;;;;28.60;30.38;101254.91;106429;1262;61183;-84
2024/04/23 13:42:31;;;;;;;3.10;2.20;;;;;;;30.54;28.25;101249.58;106288;1260;73623;-84
2024/04/23 13:44:58;;;;;;;2.50;2.00;;;;;;;30.87;27.01;101248.05;105978;1260;61371;-84
2024/04/23 13:47:38;;;;;;;4.40;1.80;;;;;;;30.63;26.97;101248.21;106001;1254;61174;-80
2024/04/23 13:50:07;;;;;;;14.10;8.10;;;;;;;31.12;26.45;101245.93;106064;1263;68198;-85
2024/04/23 13:52:39;;;;;;;4.40;1.90;;;;;;;31.79;25.66;101244.11;106128;1254;61362;-80
2024/04/23 13:55:07;;;;;;;2.00;1.60;;;;;;;31.35;26.14;101239.54;106049;1259;75320;-84
2024/04/23 13:57:36;;;;;;;4.60;2.90;;;;;;;30.99;26.06;101239.33;106044;1260;61318;-81
2024/04/23 14:00:05;;;;;;;9.10;5.20;;;;;;;30.25;26.92;101240.75;106169;1254;61315;-81
2024/04/23 14:02:32;;;;;;;3.00;2.00;;;;;;;31.17;26.27;101236.95;106118;1260;66168;-80
2024/04/23 14:05:00;;;;;;;8.50;4.00;;;;;;;32.34;25.74;101232.02;106144;1261;69817;-79
2024/04/23 14:07:28;;;;;;;11.40;4.80;;;;;;;32.40;25.31;101232.08;106148;1257;65947;-80
2024/04/23 14:09:55;;;;;;;7.90;3.70;;;;;;;32.35;24.81;101228.86;106354;1257;61391;-84
2024/04/23 14:12:26;;;;;;;10.80;5.20;;;;;;;31.79;25.09;101232.63;106275;1262;62200;-84
2024/04/23 14:14:53;;;;;;;4.60;2.30;;;;;;;31.55;25.92;101228.80;106235;1254;76210;-83
2024/04/23 14:17:21;;;;;;;2.50;1.30;;;;;;;31.82;25.82;101227.95;106313;1255;70078;-80
2024/04/23 14:19:49;;;;;;;9.20;4.50;;;;;;;31.39;25.79;101229.43;106302;1257;62873;-79
2024/04/23 14:22:17;;;;;;;10.00;4.30;;;;;;;31.66;25.28;101220.41;106281;1261;61385;-84
2024/04/23 14:24:47;;;;;;;6.80;3.50;;;;;;;31.30;25.69;101218.14;106059;1260;60468;-84
2024/04/23 14:27:15;;;;;;;14.40;6.30;;;;;;;31.23;26.02;101211.86;106247;1254;76902;-80
2024/04/23 14:29:43;;;;;;;1.30;1.10;;;;;;;30.95;25.96;101210.03;106325;1255;67581;-81
2024/04/23 14:32:12;;;;;;;2.80;1.30;;;;;;;30.13;26.48;101211.70;106297;1254;74652;-83
2024/04/23 14:34:40;;;;;;;3.10;1.20;;;;;;;28.85;28.05;101211.05;106195;1257;61192;-84
2024/04/23 14:37:07;;;;;;;19.00;10.40;;;;;;;28.72;28.26;101208.48;106204;1260;62201;-78
2024/04/23 14:39:35;;;;;;;13.50;6.20;;;;;;;28.38;28.51;101209.60;106241;1263;75341;-80
2024/04/23 14:42:03;;;;;;;27.60;13.00;;;;;;;28.04;29.09;101214.52;106128;1260;69897;-84
2024/04/23 14:44:30;;;;;;;6.50;2.70;;;;;;;27.77;29.56;101217.17;106339;1260;64879;-80
2024/04/23 14:46:58;;;;;;;3.50;1.30;;;;;;;27.17;30.04;101216.20;106314;1258;61298;-84
2024/04/23 14:49:26;;;;;;;5.90;2.10;;;;;;;27.76;29.52;101209.61;106159;1260;61218;-79
2024/04/23 14:51:55;;;;;;;21.30;10.10;;;;;;;27.50;29.28;101205.61;106317;1254;75166;-84
2024/04/23 14:54:23;;;;;;;20.40;9.50;;;;;;;27.88;28.53;101198.29;106303;1270;68364;-83
2024/04/23 14:56:51;;;;;;;6.20;3.60;;;;;;;27.65;28.37;101188.73;106288;1260;64923;-83
2024/04/23 14:59:18;;;;;;;2.30;1.30;;;;;;;25.49;31.06;101178.35;106159;1258;60372;-80
2024/04/23 15:01:46;;;;;;;6.20;2.70;;;;;;;26.72;29.66;101164.27;106149;1258;59624;-83
2024/04/23 15:04:16;;;;;;;2.60;1.20;;;;;;;27.50;28.40;101157.18;106237;1254;75700;-80
2024/04/23 15:06:44;;;;;;;10.40;4.40;;;;;;;27.18;28.48;101158.82;106326;1260;61736;-83
2024/04/23 15:09:11;;;;;;;5.10;2.80;;;;;;;26.59;28.71;101158.91;106152;1254;72166;-83
2024/04/23 15:11:39;;;;;;;19.80;9.50;;;;;;;26.41;28.48;101161.11;106359;1260;62407;-79
2024/04/23 15:14:06;;;;;;;11.90;5.30;;;;;;;26.23;28.29;101162.20;106184;1268;61173;-83
2024/04/23 15:16:34;;;;;;;4.80;2.00;;;;;;;26.35;27.95;101160.52;106145;1257;76879;-79
2024/04/23 15:19:01;;;;;;;8.50;3.70;;;;;;;26.94;26.74;101155.46;106433;1254;69159;-83
2024/04/23 15:21:29;;;;;;;11.00;4.60;;;;;;;25.21;28.34;101157.63;106333;1255;74748;-79
2024/04/23 15:23:57;;;;;;;10.60;4.70;;;;;;;22.54;31.66;101161.11;106356;1260;62441;-83
2024/04/23 15:26:24;;;;;;;4.90;1.80;;;;;;;23.16;30.41;101153.70;106215;1260;62262;-79
2024/04/23 15:28:52;;;;;;;9.30;3.90;;;;;;;22.28;31.40;101147.30;106225;1256;76748;-80
2024/04/23 15:31:20;;;;;;;17.70;7.00;;;;;;;22.29;31.48;101143.35;105980;1261;68530;-83
2024/04/23 15:33:47;;;;;;;11.30;5.20;;;;;;;22.08;32.10;101139.92;106212;1257;71437;-83
2024/04/23 15:36:15;;;;;;;9.40;3.50;;;;;;;24.89;29.18;101130.61;106250;1256;62282;-79
2024/04/23 15:38:54;;;;;;;1.40;1.00;;;;;;;22.57;31.64;101129.99;105957;1260;62298;-79
2024/04/23 15:41:22;;;;;;;10.00;4.30;;;;;;;21.50;33.77;101132.18;106209;1259;75582;-83
2024/04/23 15:43:50;;;;;;;9.30;4.30;;;;;;;21.43;34.31;101130.85;106277;1257;68563;-80
2024/04/23 15:46:17;;;;;;;31.90;13.70;;;;;;;21.55;34.26;101132.25;106303;1257;73713;-79
2024/04/23 15:48:45;;;;;;;5.60;2.40;;;;;;;21.95;35.07;101130.69;105990;1256;61927;-79
2024/04/23 15:51:13;;;;;;;4.30;2.00;;;;;;;22.24;35.34;101129.68;106228;1254;61369;-79
2024/04/23 15:53:40;;;;;;;28.20;14.10;;;;;;;22.90;34.23;101130.11;106382;1258;74627;-83
2024/04/23 15:56:12;;;;;;;15.40;6.90;;;;;;;23.38;34.07;101128.77;106241;1257;71151;-79
2024/04/23 15:58:40;;;;;;;7.70;3.60;;;;;;;24.32;32.74;101124.08;106216;1256;73777;-84
2024/04/23 16:01:08;;;;;;;8.30;2.90;;;;;;;25.61;30.80;101116.07;106165;1260;61330;-83
2024/04/23 16:03:37;;;;;;;14.60;6.10;;;;;;;25.53;30.79;101118.60;106184;1254;61282;-84
2024/04/23 16:06:05;;;;;;;26.70;10.80;;;;;;;25.44;30.91;101118.94;106051;1254;66252;-84
2024/04/23 16:08:33;;;;;;;53.50;23.10;;;;;;;25.56;30.54;101120.98;106375;1254;62106;-85
2024/04/23 16:11:01;;;;;;;34.90;15.30;;;;;;;24.85;31.31;101124.77;106155;1254;64253;-79
2024/04/23 16:13:29;;;;;;;28.20;11.60;;;;;;;25.19;31.05;101117.10;106292;1260;61359;-79
2024/04/23 16:15:58;;;;;;;23.40;8.80;;;;;;;24.73;31.69;101114.96;106116;1254;61261;-82
2024/04/23 16:18:32;;;;;;;16.70;6.50;;;;;;;25.03;31.58;101107.80;106234;1260;76959;-84
2024/04/23 16:21:00;;;;;;;21.50;9.20;;;;;;;24.95;31.97;101104.02;106216;1254;69766;-83
2024/04/23 16:23:30;;;;;;;9.30;4.60;;;;;;;24.90;31.59;101110.14;106143;1254;74931;-83
2024/04/23 16:26:02;;;;;;;8.30;4.00;;;;;;;24.58;31.86;101105.80;106170;1260;61215;-85
2024/04/23 16:28:30;;;;;;;4.90;2.80;;;;;;;21.85;35.61;101113.20;106269;1254;61384;-83
2024/04/23 16:31:04;;;;;;;5.90;3.30;;;;;;;22.30;35.30;101104.54;105887;1254;77128;-84
2024/04/23 16:33:33;;;;;;;3.70;2.70;;;;;;;21.59;36.22;101104.14;106722;1254;69402;-84
2024/04/23 16:36:04;;;;;;;2.60;1.80;;;;;;;21.80;36.46;101099.71;105930;1260;75066;-84
2024/04/23 16:38:36;;;;;;;3.50;2.00;;;;;;;21.67;36.89;101095.05;106052;1254;61302;-83
2024/04/23 16:41:05;;;;;;;2.30;2.10;;;;;;;21.17;37.83;101092.20;106221;1257;61311;-84
2024/04/23 16:43:33;;;;;;;2.00;1.50;;;;;;;21.95;36.67;101088.36;106145;1261;74095;-83
2024/04/23 16:46:13;;;;;;;2.70;1.90;;;;;;;22.79;35.43;101087.05;106362;1254;69778;-84
2024/04/23 16:48:41;;;;;;;7.70;2.40;;;;;;;23.38;34.61;101088.66;105927;1257;71901;-84
2024/04/23 16:51:11;;;;;;;7.20;3.50;;;;;;;24.08;33.59;101088.04;106339;1254;61794;-84
2024/04/23 16:53:39;;;;;;;4.60;2.30;;;;;;;22.77;35.00;101084.79;105951;1254;61991;-84
2024/04/23 16:56:10;;;;;;;2.30;1.70;;;;;;;22.44;35.44;101078.26;105923;1255;74465;-83
2024/04/23 16:58:38;;;;;;;3.60;1.50;;;;;;;23.01;34.75;101076.10;106155;1254;70994;-84
2024/04/23 17:01:08;;;;;;;2.00;1.40;;;;;;;22.89;34.90;101069.34;106029;1262;74830;-80
2024/04/23 17:03:37;;;;;;;3.80;1.70;;;;;;;22.49;35.31;101068.63;106137;1254;62258;-85
2024/04/23 17:06:06;;;;;;;5.80;2.30;;;;;;;22.46;35.54;101081.95;106069;1260;61857;-84
2024/04/23 17:08:33;;;;;;;2.90;1.80;;;;;;;23.10;35.14;101086.98;106179;1254;76889;-84
2024/04/23 17:11:01;;;;;;;2.30;1.80;;;;;;;23.26;35.17;101095.38;106047;1255;68848;-80
2024/04/23 17:13:32;;;;;;;3.80;1.90;;;;;;;23.16;35.27;101089.81;106163;1259;73618;-84
2024/04/23 17:16:11;;;;;;;2.20;1.70;;;;;;;22.97;35.60;101093.48;106172;1260;61228;-79
2024/04/23 17:18:39;;;;;;;7.00;2.00;;;;;;;22.68;36.27;101090.52;106436;1260;61237;-80
2024/04/23 17:21:17;;;;;;;5.60;2.10;;;;;;;22.13;37.41;101091.60;106185;1260;76894;-83
2024/04/23 17:23:45;;;;;;;4.50;2.30;;;;;;;22.09;37.68;101081.91;106183;1258;68799;-79
2024/04/23 17:26:12;;;;;;;7.60;2.20;;;;;;;21.04;39.49;101093.20;106072;1257;72967;-80
2024/04/23 17:28:40;;;;;;;5.10;2.20;;;;;;;20.61;40.44;101097.30;106368;1254;61353;-79
2024/04/23 17:31:08;;;;;;;5.30;2.00;;;;;;;20.46;41.16;101094.33;106341;1261;61365;-85
2024/04/23 17:33:36;;;;;;;2.20;2.00;;;;;;;21.04;40.61;101092.06;106215;1256;74313;-80
2024/04/23 17:36:04;;;;;;;2.70;1.80;;;;;;;21.47;39.83;101091.36;106348;1254;71081;-80
2024/04/23 17:38:31;;;;;;;3.30;1.90;;;;;;;20.76;41.03;101093.41;106417;1254;74974;-81
2024/04/23 17:41:01;;;;;;;3.00;1.70;;;;;;;20.24;42.59;101091.23;106190;1257;62456;-85